Bigfork, Minnesota
Current Conditions -  °F | °C
As of 2:33 AM on Thursday 29 Jan 2015 (Local Time) from KFOZ Reporting Station
Overcast Overcast  
Wind Chill: -7°   Ceiling: 1100
Heat Index: -2°   Visibility: 10mi
Dew Point: -4°   Wind: 10mph
Humidity: 86%   Direction: 330°NNW
Pressure: 29.95"   Gusts: 20mph
Location:  47.74°N, 93.65°W
Report Text: KFOZ 290833Z AUTO 33009G17KT 293V003 10SM BKN011 OVC014 M02/M04 A2995 RMK AO2
Loading
Personal Weather Stations






























Interactive Weather Map New forecast layout! Learn more

10-Day Weather Forecast

Advertisements
Track Severe Weather on mobile